Nikki Jo. C. — WBA5546 — position and weather

sailwx.info

Track history (hours):
 
Tides and Currents Weather Stations Pressure Air Temp Water Temp Dewpoint Dewpoint Depression Visibility Wind Speed Wind Dir Waves Ship Positions

Nikki Jo. C.

Owner: JACKSON CREEK SEAFOOD INC, DELTAVILLE, VA. More information available from US FCC via Universal Licensing System and Coast Guard Vessel Documentation Center.

Last reported at 2017-Nov-18 20:39 UTC. Time now 2017-Nov-23 07:40 UTC.
Position N 36°51' W 076°21'.

Length 20 m; draft 1 m.

Type: Tug. MMSI: 367127830.

Date/timePositionNaut miles runAvg speedWind from/ knotsBaromVisibWave heightAir tempDewpointWater temp
2017-Nov-18 20:39N 36°51' W 076°21'1 6.1
2017-Nov-18 20:30N 36°51' W 076°20'3 6.3
2017-Nov-18 20:00N 36°49' W 076°17'1 1.6
2017-Nov-18 19:30N 36°48' W 076°17'2 4.7
2017-Nov-18 19:00N 36°50' W 076°18'3 5.3
2017-Nov-18 18:30N 36°52' W 076°20'3 5.1
2017-Nov-18 18:00N 36°55' W 076°20'2 4.8
2017-Nov-18 17:29N 36°57' W 076°20'  
2017-Nov-16 04:51N 36°57' W 076°20'3 7.6
2017-Nov-16 04:30N 36°54' W 076°20'4 7.1
2017-Nov-16 04:00N 36°51' W 076°18'3 5.9
2017-Nov-16 03:30N 36°48' W 076°17'0 0.0
2017-Nov-16 03:00N 36°48' W 076°17'0 0.0
2017-Nov-16 02:30N 36°48' W 076°17'0 0.2
2017-Nov-16 02:00N 36°48' W 076°17'2 3.8
2017-Nov-16 01:30N 36°50' W 076°18'3 5.5
2017-Nov-16 01:00N 36°52' W 076°20'5 2.2
2017-Nov-15 22:37N 36°57' W 076°21'2 5.5
2017-Nov-15 22:10N 36°55' W 076°20'1 6.9
2017-Nov-15 22:00N 36°54' W 076°20'3 6.5
2017-Nov-15 21:30N 36°51' W 076°18'3 6.0
2017-Nov-15 21:00N 36°48' W 076°17'0 0.0
2017-Nov-15 20:30N 36°48' W 076°17'0 0.1
2017-Nov-15 20:00N 36°48' W 076°17'0 0.1
2017-Nov-15 19:30N 36°48' W 076°17'0 0.4
2017-Nov-15 19:00N 36°48' W 076°17'2 3.5
2017-Nov-15 18:30N 36°50' W 076°18'3 5.5
2017-Nov-15 18:00N 36°52' W 076°20'81 2.4
2017-Nov-14 08:44N 38°11' W 075°59'2 6.0
2017-Nov-14 08:20N 38°09' W 075°59'2 5.9
2017-Nov-14 07:57N 38°06' W 075°58'8 5.6
2017-Nov-14 06:27N 37°58' W 075°56'3 6.0
2017-Nov-14 05:57N 37°55' W 075°57'45 1.2
2017-Nov-12 15:44N 38°38' W 075°37'0 0.1
2017-Nov-12 15:12N 38°38' W 075°37'4 3.6
2017-Nov-12 14:03N 38°35' W 075°40'5 6.6
2017-Nov-12 13:17N 38°32' W 075°45'8 5.6
2017-Nov-12 11:55N 38°25' W 075°51'9 5.8
2017-Nov-12 10:17N 38°16' W 075°56'83 6.3
2017-Nov-11 21:07N 36°56' W 076°20'1 7.0
2017-Nov-11 21:00N 36°55' W 076°20'3 6.5
2017-Nov-11 20:30N 36°52' W 076°19'3 6.4
2017-Nov-11 20:00N 36°49' W 076°17'1 1.9
2017-Nov-11 19:30N 36°48' W 076°17'0 0.1
2017-Nov-11 19:00N 36°48' W 076°17'0 0.1
2017-Nov-11 18:30N 36°48' W 076°17'0 0.3
2017-Nov-11 18:00N 36°48' W 076°17'0 0.4
2017-Nov-11 17:30N 36°48' W 076°17'2 4.4
2017-Nov-11 17:00N 36°50' W 076°18'3 5.4
2017-Nov-11 16:30N 36°51' W 076°21'0 0.0
2017-Nov-10 05:03N 36°52' W 076°21'0 0.0
2017-Nov-10 05:00N 36°52' W 076°21'3 5.3
2017-Nov-10 04:30N 36°51' W 076°18'2 4.6
2017-Nov-10 04:00N 36°48' W 076°17'0 0.1
2017-Nov-10 03:30N 36°48' W 076°17'0 0.1
2017-Nov-10 03:00N 36°48' W 076°17'0 0.2
2017-Nov-10 02:30N 36°48' W 076°17'0 0.1
2017-Nov-10 02:00N 36°48' W 076°17'2 3.0
2017-Nov-10 01:30N 36°50' W 076°18'3 5.5
2017-Nov-10 01:00N 36°52' W 076°20'3 5.7
2017-Nov-10 00:30N 36°55' W 076°20'3 5.5
2017-Nov-10 00:00N 36°57' W 076°20'2 4.0
2017-Nov-09 23:30N 36°59' W 076°19'  
Track history (hours):
 
Tides and Currents Weather Stations Pressure Air Temp Water Temp Dewpoint Dewpoint Depression Visibility Wind Speed Wind Dir Waves Ship Positions

Nikki Jo. C.

Owner: JACKSON CREEK SEAFOOD INC, DELTAVILLE, VA. More information available from US FCC via Universal Licensing System and Coast Guard Vessel Documentation Center.

Last reported at 2017-Nov-18 20:39 UTC. Time now 2017-Nov-23 07:40 UTC.
Position N 36°51' W 076°21'.

Length 20 m; draft 1 m.

Type: Tug. MMSI: 367127830.

Date/timePositionNaut miles runAvg speedWind from/ knotsBaromVisibWave heightAir tempDewpointWater temp
2017-Nov-18 20:39N 36°51' W 076°21'1 6.1
2017-Nov-18 20:30N 36°51' W 076°20'3 6.3
2017-Nov-18 20:00N 36°49' W 076°17'1 1.6
2017-Nov-18 19:30N 36°48' W 076°17'2 4.7
2017-Nov-18 19:00N 36°50' W 076°18'3 5.3
2017-Nov-18 18:30N 36°52' W 076°20'3 5.1
2017-Nov-18 18:00N 36°55' W 076°20'2 4.8
2017-Nov-18 17:29N 36°57' W 076°20'  
2017-Nov-16 04:51N 36°57' W 076°20'3 7.6
2017-Nov-16 04:30N 36°54' W 076°20'4 7.1
2017-Nov-16 04:00N 36°51' W 076°18'3 5.9
2017-Nov-16 03:30N 36°48' W 076°17'0 0.0
2017-Nov-16 03:00N 36°48' W 076°17'0 0.0
2017-Nov-16 02:30N 36°48' W 076°17'0 0.2
2017-Nov-16 02:00N 36°48' W 076°17'2 3.8
2017-Nov-16 01:30N 36°50' W 076°18'3 5.5
2017-Nov-16 01:00N 36°52' W 076°20'5 2.2
2017-Nov-15 22:37N 36°57' W 076°21'2 5.5
2017-Nov-15 22:10N 36°55' W 076°20'1 6.9
2017-Nov-15 22:00N 36°54' W 076°20'3 6.5
2017-Nov-15 21:30N 36°51' W 076°18'3 6.0
2017-Nov-15 21:00N 36°48' W 076°17'0 0.0
2017-Nov-15 20:30N 36°48' W 076°17'0 0.1
2017-Nov-15 20:00N 36°48' W 076°17'0 0.1
2017-Nov-15 19:30N 36°48' W 076°17'0 0.4
2017-Nov-15 19:00N 36°48' W 076°17'2 3.5
2017-Nov-15 18:30N 36°50' W 076°18'3 5.5
2017-Nov-15 18:00N 36°52' W 076°20'81 2.4
2017-Nov-14 08:44N 38°11' W 075°59'2 6.0
2017-Nov-14 08:20N 38°09' W 075°59'2 5.9
2017-Nov-14 07:57N 38°06' W 075°58'8 5.6
2017-Nov-14 06:27N 37°58' W 075°56'3 6.0
2017-Nov-14 05:57N 37°55' W 075°57'45 1.2
2017-Nov-12 15:44N 38°38' W 075°37'0 0.1
2017-Nov-12 15:12N 38°38' W 075°37'4 3.6
2017-Nov-12 14:03N 38°35' W 075°40'5 6.6
2017-Nov-12 13:17N 38°32' W 075°45'8 5.6
2017-Nov-12 11:55N 38°25' W 075°51'9 5.8
2017-Nov-12 10:17N 38°16' W 075°56'83 6.3
2017-Nov-11 21:07N 36°56' W 076°20'1 7.0
2017-Nov-11 21:00N 36°55' W 076°20'3 6.5
2017-Nov-11 20:30N 36°52' W 076°19'3 6.4
2017-Nov-11 20:00N 36°49' W 076°17'1 1.9
2017-Nov-11 19:30N 36°48' W 076°17'0 0.1
2017-Nov-11 19:00N 36°48' W 076°17'0 0.1
2017-Nov-11 18:30N 36°48' W 076°17'0 0.3
2017-Nov-11 18:00N 36°48' W 076°17'0 0.4
2017-Nov-11 17:30N 36°48' W 076°17'2 4.4
2017-Nov-11 17:00N 36°50' W 076°18'3 5.4
2017-Nov-11 16:30N 36°51' W 076°21'0 0.0
2017-Nov-10 05:03N 36°52' W 076°21'0 0.0
2017-Nov-10 05:00N 36°52' W 076°21'3 5.3
2017-Nov-10 04:30N 36°51' W 076°18'2 4.6
2017-Nov-10 04:00N 36°48' W 076°17'0 0.1
2017-Nov-10 03:30N 36°48' W 076°17'0 0.1
2017-Nov-10 03:00N 36°48' W 076°17'0 0.2
2017-Nov-10 02:30N 36°48' W 076°17'0 0.1
2017-Nov-10 02:00N 36°48' W 076°17'2 3.0
2017-Nov-10 01:30N 36°50' W 076°18'3 5.5
2017-Nov-10 01:00N 36°52' W 076°20'3 5.7
2017-Nov-10 00:30N 36°55' W 076°20'3 5.5
2017-Nov-10 00:00N 36°57' W 076°20'2 4.0
2017-Nov-09 23:30N 36°59' W 076°19'  

Dump ship's entire track history